sensor_id;sensor_type;location;lat;lon;timestamp;P1;durP1;ratioP1;P2;durP2;ratioP2
62915;SDS011;49010;51.230;-2.306;2022-11-20T00:01:59;14.32;;;6.45;;
62915;SDS011;49010;51.230;-2.306;2022-11-20T00:05:41;12.60;;;6.72;;
62915;SDS011;49010;51.230;-2.306;2022-11-20T00:09:23;14.45;;;7.30;;
62915;SDS011;49010;51.230;-2.306;2022-11-20T00:13:04;12.60;;;6.95;;
62915;SDS011;49010;51.230;-2.306;2022-11-20T00:16:47;14.02;;;7.75;;
62915;SDS011;49010;51.230;-2.306;2022-11-20T00:20:29;14.55;;;7.57;;
62915;SDS011;49010;51.230;-2.306;2022-11-20T00:24:11;19.75;;;7.95;;
62915;SDS011;49010;51.230;-2.306;2022-11-20T00:27:53;16.17;;;7.85;;
62915;SDS011;49010;51.230;-2.306;2022-11-20T00:31:34;12.38;;;7.78;;
62915;SDS011;49010;51.230;-2.306;2022-11-20T00:35:16;19.50;;;8.52;;
62915;SDS011;49010;51.230;-2.306;2022-11-20T00:38:58;16.10;;;8.45;;
62915;SDS011;49010;51.230;-2.306;2022-11-20T00:42:40;15.45;;;7.93;;
62915;SDS011;49010;51.230;-2.306;2022-11-20T00:46:23;14.82;;;8.13;;
62915;SDS011;49010;51.230;-2.306;2022-11-20T00:50:06;14.90;;;7.85;;
62915;SDS011;49010;51.230;-2.306;2022-11-20T00:53:49;19.88;;;8.77;;
62915;SDS011;49010;51.230;-2.306;2022-11-20T00:57:31;15.73;;;8.82;;
62915;SDS011;49010;51.230;-2.306;2022-11-20T01:01:14;17.75;;;9.93;;
62915;SDS011;49010;51.230;-2.306;2022-11-20T01:05:05;16.55;;;8.98;;
62915;SDS011;49010;51.230;-2.306;2022-11-20T01:08:48;14.13;;;9.18;;
62915;SDS011;49010;51.230;-2.306;2022-11-20T01:12:31;14.27;;;9.35;;
62915;SDS011;49010;51.230;-2.306;2022-11-20T01:16:14;17.00;;;8.88;;
62915;SDS011;49010;51.230;-2.306;2022-11-20T01:19:58;14.60;;;9.07;;
62915;SDS011;49010;51.230;-2.306;2022-11-20T01:23:40;12.50;;;7.88;;
62915;SDS011;49010;51.230;-2.306;2022-11-20T01:27:23;15.85;;;8.38;;
62915;SDS011;49010;51.230;-2.306;2022-11-20T01:31:12;19.23;;;9.10;;
62915;SDS011;49010;51.230;-2.306;2022-11-20T01:34:57;12.73;;;7.35;;
62915;SDS011;49010;51.230;-2.306;2022-11-20T01:38:39;12.80;;;6.85;;
62915;SDS011;49010;51.230;-2.306;2022-11-20T01:42:20;15.32;;;7.55;;
62915;SDS011;49010;51.230;-2.306;2022-11-20T01:46:21;11.05;;;6.60;;
62915;SDS011;49010;51.230;-2.306;2022-11-20T01:50:04;9.88;;;5.75;;
62915;SDS011;49010;51.230;-2.306;2022-11-20T01:53:53;12.52;;;6.20;;
62915;SDS011;49010;51.230;-2.306;2022-11-20T01:57:39;14.00;;;6.63;;
62915;SDS011;49010;51.230;-2.306;2022-11-20T02:01:22;10.73;;;5.75;;
62915;SDS011;49010;51.230;-2.306;2022-11-20T02:09:09;7.00;;;3.83;;
62915;SDS011;49010;51.230;-2.306;2022-11-20T02:12:52;9.88;;;4.78;;
62915;SDS011;49010;51.230;-2.306;2022-11-20T02:16:53;7.93;;;3.65;;
62915;SDS011;49010;51.230;-2.306;2022-11-20T02:20:36;7.63;;;3.15;;
62915;SDS011;49010;51.230;-2.306;2022-11-20T02:24:19;7.35;;;3.45;;
62915;SDS011;49010;51.230;-2.306;2022-11-20T02:28:03;4.55;;;2.38;;
62915;SDS011;49010;51.230;-2.306;2022-11-20T02:31:46;4.32;;;1.65;;
62915;SDS011;49010;51.230;-2.306;2022-11-20T02:39:11;1.83;;;1.00;;
62915;SDS011;49010;51.230;-2.306;2022-11-20T02:42:55;2.17;;;1.20;;
62915;SDS011;49010;51.230;-2.306;2022-11-20T02:46:37;1.65;;;0.95;;
62915;SDS011;49010;51.230;-2.306;2022-11-20T02:50:19;1.40;;;1.00;;
62915;SDS011;49010;51.230;-2.306;2022-11-20T02:54:01;2.42;;;1.45;;
62915;SDS011;49010;51.230;-2.306;2022-11-20T02:57:43;3.78;;;0.85;;
62915;SDS011;49010;51.230;-2.306;2022-11-20T03:01:24;2.05;;;0.80;;
62915;SDS011;49010;51.230;-2.306;2022-11-20T03:05:06;2.83;;;0.95;;
62915;SDS011;49010;51.230;-2.306;2022-11-20T03:08:49;4.07;;;0.80;;
62915;SDS011;49010;51.230;-2.306;2022-11-20T03:12:31;1.60;;;0.90;;
62915;SDS011;49010;51.230;-2.306;2022-11-20T03:16:14;2.20;;;0.82;;
62915;SDS011;49010;51.230;-2.306;2022-11-20T03:20:00;1.05;;;0.60;;
62915;SDS011;49010;51.230;-2.306;2022-11-20T03:23:42;1.23;;;0.77;;
62915;SDS011;49010;51.230;-2.306;2022-11-20T03:27:24;1.10;;;0.50;;
62915;SDS011;49010;51.230;-2.306;2022-11-20T03:31:06;1.25;;;0.60;;
62915;SDS011;49010;51.230;-2.306;2022-11-20T03:34:49;2.90;;;1.33;;
62915;SDS011;49010;51.230;-2.306;2022-11-20T03:38:31;2.28;;;1.77;;
62915;SDS011;49010;51.230;-2.306;2022-11-20T03:42:14;3.42;;;1.65;;
62915;SDS011;49010;51.230;-2.306;2022-11-20T03:46:14;3.92;;;1.50;;
62915;SDS011;49010;51.230;-2.306;2022-11-20T03:49:56;2.80;;;1.50;;
62915;SDS011;49010;51.230;-2.306;2022-11-20T03:53:38;3.05;;;1.40;;
62915;SDS011;49010;51.230;-2.306;2022-11-20T03:57:21;3.58;;;1.35;;
62915;SDS011;49010;51.230;-2.306;2022-11-20T04:04:52;2.08;;;1.05;;
62915;SDS011;49010;51.230;-2.306;2022-11-20T04:08:34;3.05;;;1.13;;
62915;SDS011;49010;51.230;-2.306;2022-11-20T04:12:16;1.55;;;1.23;;
62915;SDS011;49010;51.230;-2.306;2022-11-20T04:15:57;4.85;;;1.30;;
62915;SDS011;49010;51.230;-2.306;2022-11-20T04:19:39;3.83;;;1.30;;
62915;SDS011;49010;51.230;-2.306;2022-11-20T04:23:21;2.13;;;1.15;;
62915;SDS011;49010;51.230;-2.306;2022-11-20T04:27:09;1.92;;;1.10;;
62915;SDS011;49010;51.230;-2.306;2022-11-20T04:30:50;4.82;;;1.35;;
62915;SDS011;49010;51.230;-2.306;2022-11-20T04:34:32;2.13;;;0.80;;
62915;SDS011;49010;51.230;-2.306;2022-11-20T04:38:14;2.85;;;0.90;;
62915;SDS011;49010;51.230;-2.306;2022-11-20T04:41:56;5.15;;;1.35;;
62915;SDS011;49010;51.230;-2.306;2022-11-20T04:45:56;2.42;;;0.93;;
62915;SDS011;49010;51.230;-2.306;2022-11-20T04:49:39;3.00;;;1.20;;
62915;SDS011;49010;51.230;-2.306;2022-11-20T04:53:21;1.52;;;1.05;;
62915;SDS011;49010;51.230;-2.306;2022-11-20T04:57:03;1.83;;;1.00;;
62915;SDS011;49010;51.230;-2.306;2022-11-20T05:00:50;3.22;;;1.05;;
62915;SDS011;49010;51.230;-2.306;2022-11-20T05:04:32;4.80;;;1.20;;
62915;SDS011;49010;51.230;-2.306;2022-11-20T05:08:14;5.68;;;2.20;;
62915;SDS011;49010;51.230;-2.306;2022-11-20T05:11:56;5.97;;;2.28;;
62915;SDS011;49010;51.230;-2.306;2022-11-20T05:15:38;6.40;;;2.45;;
62915;SDS011;49010;51.230;-2.306;2022-11-20T05:19:19;9.43;;;2.35;;
62915;SDS011;49010;51.230;-2.306;2022-11-20T05:23:02;10.23;;;2.50;;
62915;SDS011;49010;51.230;-2.306;2022-11-20T05:26:43;8.85;;;3.03;;
62915;SDS011;49010;51.230;-2.306;2022-11-20T05:30:25;13.68;;;2.90;;
62915;SDS011;49010;51.230;-2.306;2022-11-20T05:34:07;15.13;;;3.78;;
62915;SDS011;49010;51.230;-2.306;2022-11-20T05:37:49;19.10;;;4.25;;
62915;SDS011;49010;51.230;-2.306;2022-11-20T05:41:32;16.85;;;4.80;;
62915;SDS011;49010;51.230;-2.306;2022-11-20T05:45:14;16.55;;;4.80;;
62915;SDS011;49010;51.230;-2.306;2022-11-20T05:48:56;25.92;;;5.80;;
62915;SDS011;49010;51.230;-2.306;2022-11-20T05:52:38;15.85;;;4.65;;
62915;SDS011;49010;51.230;-2.306;2022-11-20T05:56:20;20.98;;;4.70;;
62915;SDS011;49010;51.230;-2.306;2022-11-20T06:00:03;26.90;;;5.65;;
62915;SDS011;49010;51.230;-2.306;2022-11-20T06:03:45;23.23;;;5.78;;
62915;SDS011;49010;51.230;-2.306;2022-11-20T06:07:29;15.50;;;4.45;;
62915;SDS011;49010;51.230;-2.306;2022-11-20T06:11:11;27.42;;;5.57;;
62915;SDS011;49010;51.230;-2.306;2022-11-20T06:14:54;24.38;;;5.90;;
62915;SDS011;49010;51.230;-2.306;2022-11-20T06:18:36;25.67;;;5.93;;
62915;SDS011;49010;51.230;-2.306;2022-11-20T06:22:18;27.58;;;5.88;;
62915;SDS011;49010;51.230;-2.306;2022-11-20T06:26:03;24.70;;;5.32;;
62915;SDS011;49010;51.230;-2.306;2022-11-20T06:29:46;32.60;;;5.65;;
62915;SDS011;49010;51.230;-2.306;2022-11-20T06:33:28;28.67;;;6.22;;
62915;SDS011;49010;51.230;-2.306;2022-11-20T06:37:11;31.02;;;6.10;;
62915;SDS011;49010;51.230;-2.306;2022-11-20T06:40:53;41.28;;;6.63;;
62915;SDS011;49010;51.230;-2.306;2022-11-20T06:44:35;32.03;;;5.65;;
62915;SDS011;49010;51.230;-2.306;2022-11-20T06:48:16;23.08;;;6.70;;
62915;SDS011;49010;51.230;-2.306;2022-11-20T06:51:58;31.95;;;6.78;;
62915;SDS011;49010;51.230;-2.306;2022-11-20T06:55:43;27.05;;;6.15;;
62915;SDS011;49010;51.230;-2.306;2022-11-20T06:59:26;32.75;;;5.72;;
62915;SDS011;49010;51.230;-2.306;2022-11-20T07:03:08;27.15;;;5.45;;
62915;SDS011;49010;51.230;-2.306;2022-11-20T07:06:51;33.97;;;8.13;;
62915;SDS011;49010;51.230;-2.306;2022-11-20T07:10:33;35.63;;;6.82;;
62915;SDS011;49010;51.230;-2.306;2022-11-20T07:14:15;27.10;;;5.95;;
62915;SDS011;49010;51.230;-2.306;2022-11-20T07:18:00;34.58;;;6.13;;
62915;SDS011;49010;51.230;-2.306;2022-11-20T07:21:42;33.00;;;7.40;;
62915;SDS011;49010;51.230;-2.306;2022-11-20T07:25:27;30.65;;;7.13;;
62915;SDS011;49010;51.230;-2.306;2022-11-20T07:29:09;34.42;;;7.68;;
62915;SDS011;49010;51.230;-2.306;2022-11-20T07:32:52;36.38;;;12.38;;
62915;SDS011;49010;51.230;-2.306;2022-11-20T07:36:34;41.22;;;12.13;;
62915;SDS011;49010;51.230;-2.306;2022-11-20T07:40:16;41.88;;;10.55;;
62915;SDS011;49010;51.230;-2.306;2022-11-20T07:43:59;29.73;;;7.93;;
62915;SDS011;49010;51.230;-2.306;2022-11-20T07:47:40;41.80;;;8.98;;
62915;SDS011;49010;51.230;-2.306;2022-11-20T07:51:26;39.03;;;8.63;;
62915;SDS011;49010;51.230;-2.306;2022-11-20T07:55:08;40.55;;;8.40;;
62915;SDS011;49010;51.230;-2.306;2022-11-20T07:58:51;36.17;;;8.07;;
62915;SDS011;49010;51.230;-2.306;2022-11-20T08:02:32;30.02;;;7.25;;
62915;SDS011;49010;51.230;-2.306;2022-11-20T08:06:14;31.58;;;7.68;;
62915;SDS011;49010;51.230;-2.306;2022-11-20T08:09:56;31.40;;;7.60;;
62915;SDS011;49010;51.230;-2.306;2022-11-20T08:13:39;33.13;;;6.72;;
62915;SDS011;49010;51.230;-2.306;2022-11-20T08:17:39;32.92;;;7.30;;
62915;SDS011;49010;51.230;-2.306;2022-11-20T08:21:21;36.22;;;7.10;;
62915;SDS011;49010;51.230;-2.306;2022-11-20T08:25:02;44.28;;;9.80;;
62915;SDS011;49010;51.230;-2.306;2022-11-20T08:28:45;37.28;;;8.23;;
62915;SDS011;49010;51.230;-2.306;2022-11-20T08:32:27;30.50;;;6.57;;
62915;SDS011;49010;51.230;-2.306;2022-11-20T08:36:08;27.92;;;7.10;;
62915;SDS011;49010;51.230;-2.306;2022-11-20T08:39:50;30.83;;;7.90;;
62915;SDS011;49010;51.230;-2.306;2022-11-20T08:43:33;53.85;;;9.82;;
62915;SDS011;49010;51.230;-2.306;2022-11-20T08:47:15;47.60;;;7.75;;
62915;SDS011;49010;51.230;-2.306;2022-11-20T08:50:57;47.92;;;9.10;;
62915;SDS011;49010;51.230;-2.306;2022-11-20T08:54:40;47.08;;;8.43;;
62915;SDS011;49010;51.230;-2.306;2022-11-20T08:58:22;34.17;;;9.07;;
62915;SDS011;49010;51.230;-2.306;2022-11-20T09:02:04;36.72;;;7.90;;
62915;SDS011;49010;51.230;-2.306;2022-11-20T09:05:46;39.42;;;7.68;;
62915;SDS011;49010;51.230;-2.306;2022-11-20T09:09:27;33.58;;;8.20;;
62915;SDS011;49010;51.230;-2.306;2022-11-20T09:13:09;37.25;;;8.48;;
62915;SDS011;49010;51.230;-2.306;2022-11-20T09:16:51;32.55;;;7.15;;
62915;SDS011;49010;51.230;-2.306;2022-11-20T09:20:32;39.92;;;8.07;;
62915;SDS011;49010;51.230;-2.306;2022-11-20T09:24:14;37.35;;;9.27;;
62915;SDS011;49010;51.230;-2.306;2022-11-20T09:27:56;28.63;;;7.97;;
62915;SDS011;49010;51.230;-2.306;2022-11-20T09:31:39;38.65;;;8.68;;
62915;SDS011;49010;51.230;-2.306;2022-11-20T09:35:21;29.15;;;7.68;;
62915;SDS011;49010;51.230;-2.306;2022-11-20T09:39:03;39.22;;;8.27;;
62915;SDS011;49010;51.230;-2.306;2022-11-20T09:42:45;38.03;;;10.57;;
62915;SDS011;49010;51.230;-2.306;2022-11-20T09:46:49;36.17;;;8.48;;
62915;SDS011;49010;51.230;-2.306;2022-11-20T09:54:43;33.40;;;8.68;;
62915;SDS011;49010;51.230;-2.306;2022-11-20T09:58:27;34.65;;;8.20;;
62915;SDS011;49010;51.230;-2.306;2022-11-20T10:06:12;34.53;;;8.70;;
62915;SDS011;49010;51.230;-2.306;2022-11-20T10:09:58;30.45;;;6.40;;
62915;SDS011;49010;51.230;-2.306;2022-11-20T10:18:21;29.88;;;5.80;;
62915;SDS011;49010;51.230;-2.306;2022-11-20T10:30:19;39.72;;;8.05;;
62915;SDS011;49010;51.230;-2.306;2022-11-20T10:34:07;28.23;;;6.05;;
62915;SDS011;49010;51.230;-2.306;2022-11-20T10:38:05;29.48;;;6.35;;
62915;SDS011;49010;51.230;-2.306;2022-11-20T10:41:54;29.77;;;7.15;;
62915;SDS011;49010;51.230;-2.306;2022-11-20T10:45:40;26.60;;;6.38;;
62915;SDS011;49010;51.230;-2.306;2022-11-20T10:49:28;26.08;;;6.50;;
62915;SDS011;49010;51.230;-2.306;2022-11-20T10:57:53;28.35;;;7.53;;
62915;SDS011;49010;51.230;-2.306;2022-11-20T11:01:40;24.08;;;6.15;;
62915;SDS011;49010;51.230;-2.306;2022-11-20T11:05:25;25.05;;;7.40;;
62915;SDS011;49010;51.230;-2.306;2022-11-20T11:09:24;31.60;;;8.40;;
62915;SDS011;49010;51.230;-2.306;2022-11-20T11:13:26;27.15;;;9.70;;
62915;SDS011;49010;51.230;-2.306;2022-11-20T11:21:27;27.67;;;8.02;;
62915;SDS011;49010;51.230;-2.306;2022-11-20T11:25:12;31.15;;;8.55;;
62915;SDS011;49010;51.230;-2.306;2022-11-20T11:29:15;27.63;;;7.13;;
62915;SDS011;49010;51.230;-2.306;2022-11-20T11:33:06;23.30;;;7.38;;
62915;SDS011;49010;51.230;-2.306;2022-11-20T11:36:52;34.45;;;7.95;;
62915;SDS011;49010;51.230;-2.306;2022-11-20T11:40:39;22.27;;;6.13;;
62915;SDS011;49010;51.230;-2.306;2022-11-20T11:44:27;28.90;;;6.30;;
62915;SDS011;49010;51.230;-2.306;2022-11-20T11:48:33;28.95;;;6.80;;
62915;SDS011;49010;51.230;-2.306;2022-11-20T11:52:18;25.92;;;5.55;;
62915;SDS011;49010;51.230;-2.306;2022-11-20T11:56:10;24.88;;;6.30;;
62915;SDS011;49010;51.230;-2.306;2022-11-20T12:03:40;30.80;;;6.90;;
62915;SDS011;49010;51.230;-2.306;2022-11-20T12:07:30;23.38;;;6.75;;
62915;SDS011;49010;51.230;-2.306;2022-11-20T12:11:30;27.17;;;6.90;;
62915;SDS011;49010;51.230;-2.306;2022-11-20T12:15:33;29.58;;;6.55;;
62915;SDS011;49010;51.230;-2.306;2022-11-20T12:19:15;24.35;;;5.05;;
62915;SDS011;49010;51.230;-2.306;2022-11-20T12:23:13;27.83;;;6.13;;
62915;SDS011;49010;51.230;-2.306;2022-11-20T12:27:22;27.17;;;5.50;;
62915;SDS011;49010;51.230;-2.306;2022-11-20T12:43:35;23.17;;;6.57;;
62915;SDS011;49010;51.230;-2.306;2022-11-20T12:47:49;34.50;;;6.45;;
62915;SDS011;49010;51.230;-2.306;2022-11-20T12:55:33;27.67;;;5.55;;
62915;SDS011;49010;51.230;-2.306;2022-11-20T13:07:18;29.80;;;5.78;;
62915;SDS011;49010;51.230;-2.306;2022-11-20T13:11:10;17.48;;;4.00;;
62915;SDS011;49010;51.230;-2.306;2022-11-20T13:26:30;12.20;;;2.72;;
62915;SDS011;49010;51.230;-2.306;2022-11-20T13:30:16;12.18;;;2.42;;
62915;SDS011;49010;51.230;-2.306;2022-11-20T13:34:02;8.45;;;2.08;;
62915;SDS011;49010;51.230;-2.306;2022-11-20T13:37:46;9.53;;;2.33;;
62915;SDS011;49010;51.230;-2.306;2022-11-20T13:41:40;8.57;;;1.80;;
62915;SDS011;49010;51.230;-2.306;2022-11-20T13:45:24;8.25;;;1.50;;
62915;SDS011;49010;51.230;-2.306;2022-11-20T13:49:09;9.10;;;2.58;;
62915;SDS011;49010;51.230;-2.306;2022-11-20T13:53:19;5.63;;;1.30;;
62915;SDS011;49010;51.230;-2.306;2022-11-20T13:57:24;6.78;;;1.23;;
62915;SDS011;49010;51.230;-2.306;2022-11-20T14:01:29;11.27;;;1.60;;
62915;SDS011;49010;51.230;-2.306;2022-11-20T14:05:18;7.22;;;1.50;;
62915;SDS011;49010;51.230;-2.306;2022-11-20T14:09:02;7.00;;;2.05;;
62915;SDS011;49010;51.230;-2.306;2022-11-20T14:12:44;12.77;;;2.17;;
62915;SDS011;49010;51.230;-2.306;2022-11-20T14:16:27;8.23;;;1.58;;
62915;SDS011;49010;51.230;-2.306;2022-11-20T14:20:12;12.20;;;2.85;;
62915;SDS011;49010;51.230;-2.306;2022-11-20T14:24:03;7.55;;;2.00;;
62915;SDS011;49010;51.230;-2.306;2022-11-20T14:27:52;14.65;;;3.17;;
62915;SDS011;49010;51.230;-2.306;2022-11-20T14:31:35;14.13;;;3.15;;
62915;SDS011;49010;51.230;-2.306;2022-11-20T14:35:27;9.98;;;2.03;;
62915;SDS011;49010;51.230;-2.306;2022-11-20T14:39:12;10.55;;;2.88;;
62915;SDS011;49010;51.230;-2.306;2022-11-20T14:43:02;11.13;;;2.30;;
62915;SDS011;49010;51.230;-2.306;2022-11-20T14:47:05;15.55;;;2.88;;
62915;SDS011;49010;51.230;-2.306;2022-11-20T14:50:47;10.82;;;3.22;;
62915;SDS011;49010;51.230;-2.306;2022-11-20T14:54:30;11.80;;;2.60;;
62915;SDS011;49010;51.230;-2.306;2022-11-20T14:58:21;11.88;;;2.75;;
62915;SDS011;49010;51.230;-2.306;2022-11-20T15:02:08;10.63;;;2.90;;
62915;SDS011;49010;51.230;-2.306;2022-11-20T15:05:51;8.20;;;3.00;;
62915;SDS011;49010;51.230;-2.306;2022-11-20T15:09:33;11.55;;;3.35;;
62915;SDS011;49010;51.230;-2.306;2022-11-20T15:13:25;15.15;;;3.40;;
62915;SDS011;49010;51.230;-2.306;2022-11-20T15:17:08;14.43;;;3.58;;
62915;SDS011;49010;51.230;-2.306;2022-11-20T15:20:52;21.75;;;4.72;;
62915;SDS011;49010;51.230;-2.306;2022-11-20T15:24:37;17.77;;;3.90;;
62915;SDS011;49010;51.230;-2.306;2022-11-20T15:32:03;15.02;;;4.25;;
62915;SDS011;49010;51.230;-2.306;2022-11-20T15:35:53;16.65;;;3.63;;
62915;SDS011;49010;51.230;-2.306;2022-11-20T15:39:35;11.23;;;2.90;;
62915;SDS011;49010;51.230;-2.306;2022-11-20T15:43:16;14.07;;;3.22;;
62915;SDS011;49010;51.230;-2.306;2022-11-20T15:46:58;12.95;;;3.55;;
62915;SDS011;49010;51.230;-2.306;2022-11-20T15:50:46;16.08;;;3.22;;
62915;SDS011;49010;51.230;-2.306;2022-11-20T15:54:31;9.52;;;2.53;;
62915;SDS011;49010;51.230;-2.306;2022-11-20T15:58:12;18.13;;;3.08;;
62915;SDS011;49010;51.230;-2.306;2022-11-20T16:01:54;14.73;;;3.45;;
62915;SDS011;49010;51.230;-2.306;2022-11-20T16:05:36;16.25;;;3.30;;
62915;SDS011;49010;51.230;-2.306;2022-11-20T16:09:18;19.60;;;4.47;;
62915;SDS011;49010;51.230;-2.306;2022-11-20T16:12:59;14.73;;;4.00;;
62915;SDS011;49010;51.230;-2.306;2022-11-20T16:17:00;19.15;;;5.30;;
62915;SDS011;49010;51.230;-2.306;2022-11-20T16:20:43;20.42;;;4.03;;
62915;SDS011;49010;51.230;-2.306;2022-11-20T16:24:26;14.75;;;3.97;;
62915;SDS011;49010;51.230;-2.306;2022-11-20T16:28:08;15.68;;;3.30;;
62915;SDS011;49010;51.230;-2.306;2022-11-20T16:31:56;20.00;;;3.97;;
62915;SDS011;49010;51.230;-2.306;2022-11-20T16:35:38;17.48;;;4.43;;
62915;SDS011;49010;51.230;-2.306;2022-11-20T16:39:20;14.38;;;4.10;;
62915;SDS011;49010;51.230;-2.306;2022-11-20T16:43:08;16.33;;;4.05;;
62915;SDS011;49010;51.230;-2.306;2022-11-20T16:46:51;12.30;;;3.78;;
62915;SDS011;49010;51.230;-2.306;2022-11-20T16:50:33;15.50;;;3.95;;
62915;SDS011;49010;51.230;-2.306;2022-11-20T16:54:15;14.13;;;4.55;;
62915;SDS011;49010;51.230;-2.306;2022-11-20T16:58:01;12.13;;;3.77;;
62915;SDS011;49010;51.230;-2.306;2022-11-20T17:01:43;16.23;;;3.80;;
62915;SDS011;49010;51.230;-2.306;2022-11-20T17:05:25;13.57;;;4.05;;
62915;SDS011;49010;51.230;-2.306;2022-11-20T17:09:09;21.77;;;5.88;;
62915;SDS011;49010;51.230;-2.306;2022-11-20T17:12:52;23.38;;;6.32;;
62915;SDS011;49010;51.230;-2.306;2022-11-20T17:16:34;15.45;;;5.63;;
62915;SDS011;49010;51.230;-2.306;2022-11-20T17:20:16;16.98;;;4.90;;
62915;SDS011;49010;51.230;-2.306;2022-11-20T17:23:59;20.55;;;5.75;;
62915;SDS011;49010;51.230;-2.306;2022-11-20T17:27:43;21.98;;;5.10;;
62915;SDS011;49010;51.230;-2.306;2022-11-20T17:31:25;18.55;;;5.97;;
62915;SDS011;49010;51.230;-2.306;2022-11-20T17:35:08;21.23;;;6.70;;
62915;SDS011;49010;51.230;-2.306;2022-11-20T17:38:50;23.58;;;9.07;;
62915;SDS011;49010;51.230;-2.306;2022-11-20T17:42:32;31.10;;;12.60;;
62915;SDS011;49010;51.230;-2.306;2022-11-20T17:46:17;27.15;;;11.60;;
62915;SDS011;49010;51.230;-2.306;2022-11-20T17:50:01;26.45;;;13.20;;
62915;SDS011;49010;51.230;-2.306;2022-11-20T17:53:44;29.92;;;13.10;;
62915;SDS011;49010;51.230;-2.306;2022-11-20T17:57:28;28.83;;;14.10;;
62915;SDS011;49010;51.230;-2.306;2022-11-20T18:01:28;34.88;;;12.25;;
62915;SDS011;49010;51.230;-2.306;2022-11-20T18:05:10;24.27;;;11.75;;
62915;SDS011;49010;51.230;-2.306;2022-11-20T18:08:52;25.90;;;11.25;;
62915;SDS011;49010;51.230;-2.306;2022-11-20T18:12:34;28.10;;;12.02;;
62915;SDS011;49010;51.230;-2.306;2022-11-20T18:16:16;25.27;;;10.90;;
62915;SDS011;49010;51.230;-2.306;2022-11-20T18:19:58;28.40;;;12.88;;
62915;SDS011;49010;51.230;-2.306;2022-11-20T18:23:59;27.95;;;12.10;;
62915;SDS011;49010;51.230;-2.306;2022-11-20T18:27:41;28.88;;;13.80;;
62915;SDS011;49010;51.230;-2.306;2022-11-20T18:31:23;33.63;;;15.43;;
62915;SDS011;49010;51.230;-2.306;2022-11-20T18:35:05;39.97;;;15.40;;
62915;SDS011;49010;51.230;-2.306;2022-11-20T18:38:48;33.50;;;15.25;;
62915;SDS011;49010;51.230;-2.306;2022-11-20T18:42:32;26.98;;;14.80;;
62915;SDS011;49010;51.230;-2.306;2022-11-20T18:46:34;27.20;;;15.90;;
62915;SDS011;49010;51.230;-2.306;2022-11-20T18:50:15;33.17;;;15.98;;
62915;SDS011;49010;51.230;-2.306;2022-11-20T18:53:57;31.23;;;17.67;;
62915;SDS011;49010;51.230;-2.306;2022-11-20T18:57:39;37.72;;;17.65;;
62915;SDS011;49010;51.230;-2.306;2022-11-20T19:01:21;21.77;;;13.15;;
62915;SDS011;49010;51.230;-2.306;2022-11-20T19:05:03;29.75;;;14.63;;
62915;SDS011;49010;51.230;-2.306;2022-11-20T19:08:45;30.98;;;15.80;;
62915;SDS011;49010;51.230;-2.306;2022-11-20T19:12:26;35.20;;;17.27;;
62915;SDS011;49010;51.230;-2.306;2022-11-20T19:16:09;29.50;;;13.55;;
62915;SDS011;49010;51.230;-2.306;2022-11-20T19:19:54;30.30;;;15.10;;
62915;SDS011;49010;51.230;-2.306;2022-11-20T19:23:36;29.00;;;16.33;;
62915;SDS011;49010;51.230;-2.306;2022-11-20T19:27:18;32.55;;;12.38;;
62915;SDS011;49010;51.230;-2.306;2022-11-20T19:31:07;27.48;;;10.98;;
62915;SDS011;49010;51.230;-2.306;2022-11-20T19:34:50;36.78;;;20.30;;
62915;SDS011;49010;51.230;-2.306;2022-11-20T19:38:32;47.75;;;22.73;;
62915;SDS011;49010;51.230;-2.306;2022-11-20T19:42:14;18.88;;;6.90;;
62915;SDS011;49010;51.230;-2.306;2022-11-20T19:45:56;23.25;;;9.82;;
62915;SDS011;49010;51.230;-2.306;2022-11-20T19:49:38;18.92;;;7.85;;
62915;SDS011;49010;51.230;-2.306;2022-11-20T19:53:21;13.90;;;6.63;;
62915;SDS011;49010;51.230;-2.306;2022-11-20T19:57:03;13.38;;;6.00;;
62915;SDS011;49010;51.230;-2.306;2022-11-20T20:00:45;20.40;;;5.70;;
62915;SDS011;49010;51.230;-2.306;2022-11-20T20:04:27;20.52;;;5.97;;
62915;SDS011;49010;51.230;-2.306;2022-11-20T20:08:08;20.35;;;6.28;;
62915;SDS011;49010;51.230;-2.306;2022-11-20T20:11:55;22.40;;;5.33;;
62915;SDS011;49010;51.230;-2.306;2022-11-20T20:15:40;19.88;;;8.10;;
62915;SDS011;49010;51.230;-2.306;2022-11-20T20:19:22;16.60;;;6.38;;
62915;SDS011;49010;51.230;-2.306;2022-11-20T20:23:04;20.83;;;5.47;;
62915;SDS011;49010;51.230;-2.306;2022-11-20T20:26:47;19.52;;;5.68;;
62915;SDS011;49010;51.230;-2.306;2022-11-20T20:30:29;15.75;;;4.60;;
62915;SDS011;49010;51.230;-2.306;2022-11-20T20:34:11;20.38;;;5.60;;
62915;SDS011;49010;51.230;-2.306;2022-11-20T20:37:52;19.98;;;5.35;;
62915;SDS011;49010;51.230;-2.306;2022-11-20T20:41:34;20.20;;;4.80;;
62915;SDS011;49010;51.230;-2.306;2022-11-20T20:45:16;15.10;;;4.45;;
62915;SDS011;49010;51.230;-2.306;2022-11-20T20:48:58;18.45;;;4.53;;
62915;SDS011;49010;51.230;-2.306;2022-11-20T20:52:39;13.90;;;3.85;;
62915;SDS011;49010;51.230;-2.306;2022-11-20T20:56:21;17.65;;;5.65;;
62915;SDS011;49010;51.230;-2.306;2022-11-20T21:00:03;17.85;;;5.43;;
62915;SDS011;49010;51.230;-2.306;2022-11-20T21:03:47;23.80;;;4.78;;
62915;SDS011;49010;51.230;-2.306;2022-11-20T21:07:28;22.40;;;5.22;;
62915;SDS011;49010;51.230;-2.306;2022-11-20T21:11:14;15.95;;;5.80;;
62915;SDS011;49010;51.230;-2.306;2022-11-20T21:14:57;20.45;;;5.38;;
62915;SDS011;49010;51.230;-2.306;2022-11-20T21:18:39;20.30;;;6.75;;
62915;SDS011;49010;51.230;-2.306;2022-11-20T21:22:20;16.23;;;5.78;;
62915;SDS011;49010;51.230;-2.306;2022-11-20T21:26:03;25.90;;;7.18;;
62915;SDS011;49010;51.230;-2.306;2022-11-20T21:29:47;21.65;;;6.55;;
62915;SDS011;49010;51.230;-2.306;2022-11-20T21:33:34;25.67;;;8.25;;
62915;SDS011;49010;51.230;-2.306;2022-11-20T21:37:17;18.77;;;7.15;;
62915;SDS011;49010;51.230;-2.306;2022-11-20T21:40:59;21.13;;;6.90;;
62915;SDS011;49010;51.230;-2.306;2022-11-20T21:44:41;17.08;;;6.10;;
62915;SDS011;49010;51.230;-2.306;2022-11-20T21:48:26;18.80;;;5.22;;
62915;SDS011;49010;51.230;-2.306;2022-11-20T21:52:09;17.15;;;6.70;;
62915;SDS011;49010;51.230;-2.306;2022-11-20T21:55:54;23.67;;;7.47;;
62915;SDS011;49010;51.230;-2.306;2022-11-20T21:59:36;22.50;;;7.18;;
62915;SDS011;49010;51.230;-2.306;2022-11-20T22:03:17;26.40;;;8.23;;
62915;SDS011;49010;51.230;-2.306;2022-11-20T22:06:59;27.83;;;6.80;;
62915;SDS011;49010;51.230;-2.306;2022-11-20T22:10:41;17.23;;;6.72;;
62915;SDS011;49010;51.230;-2.306;2022-11-20T22:14:23;19.10;;;7.22;;
62915;SDS011;49010;51.230;-2.306;2022-11-20T22:18:05;25.90;;;7.03;;
62915;SDS011;49010;51.230;-2.306;2022-11-20T22:21:53;24.80;;;6.85;;
62915;SDS011;49010;51.230;-2.306;2022-11-20T22:25:35;21.52;;;6.32;;
62915;SDS011;49010;51.230;-2.306;2022-11-20T22:29:17;24.95;;;6.95;;
62915;SDS011;49010;51.230;-2.306;2022-11-20T22:33:03;20.80;;;6.60;;
62915;SDS011;49010;51.230;-2.306;2022-11-20T22:36:52;24.10;;;8.20;;
62915;SDS011;49010;51.230;-2.306;2022-11-20T22:40:33;31.48;;;7.30;;
62915;SDS011;49010;51.230;-2.306;2022-11-20T22:44:15;24.50;;;6.43;;
62915;SDS011;49010;51.230;-2.306;2022-11-20T22:47:57;17.48;;;5.97;;
62915;SDS011;49010;51.230;-2.306;2022-11-20T22:51:39;21.38;;;6.05;;
62915;SDS011;49010;51.230;-2.306;2022-11-20T22:55:21;25.88;;;7.18;;
62915;SDS011;49010;51.230;-2.306;2022-11-20T22:59:03;23.58;;;6.38;;
62915;SDS011;49010;51.230;-2.306;2022-11-20T23:02:45;19.90;;;6.38;;
62915;SDS011;49010;51.230;-2.306;2022-11-20T23:06:27;16.63;;;6.13;;
62915;SDS011;49010;51.230;-2.306;2022-11-20T23:10:09;17.92;;;5.78;;
62915;SDS011;49010;51.230;-2.306;2022-11-20T23:13:52;28.65;;;7.00;;
62915;SDS011;49010;51.230;-2.306;2022-11-20T23:17:55;26.00;;;6.75;;
62915;SDS011;49010;51.230;-2.306;2022-11-20T23:21:37;22.45;;;7.32;;